Airfield :
LOGIN :

Register | Disclaimer

   EN    FR    IT 

 










Legend :    VFR   Marginal VFR   IFR   Intensive IFR   Very Intensive IFR
Visi :
Ceiling :
>= 8 km
>= 3000ft
5 to 8 km
1000 to 3000 ft
1500m to 5 km
500 to 1000 ft
800 to 1500m
200 to 500 ft
< 800m
< 200 ft
Symbols :   Thunderstorms  Fog  Heavy snow  Heavy precipitations  Wind > 20 kt
SIGMETs :     Misc.  Thunderstorms  Icing  Turbulence  Mountain Waves  Volcanic Ashes







- Airport Elevation : 458 ft
- Download approach charts


LFSI - St-Dizier

CURRENT METAR :
  • 221230Z AUTO 34009G19KT 300V030 CAVOK 19/07 Q1027

EXPIRED METARs :
  • 221200Z AUTO 35010KT 280V040 9999 BKN046 BKN054 18/08 Q1027
  • 221130Z AUTO 35011KT 300V040 9999 4800 BKN046 18/06 Q1027
  • 221100Z AUTO 36010KT 320V040 9999 BKN044 18/07 Q1027
  • 221030Z AUTO 01008KT 320V090 9999 ////// 18/07 Q1028
  • 221000Z AUTO 36010KT 330V040 9999 FEW001 SCT040 17/07 Q1028

TAF TAF LFSI
Valid from the 22 at 09:00 until the 23 at 09:00 UTC


220800Z 2209/2309 34010G20KT CAVOK
No reported NOTAMs for that airfield.



MET'MAP, your aeronautical weather chart ! - Copyright ORBIFLY December 2007 - Disclaimer

ORBIFLY MET'MAP TEAM :

Programming & Development : Alexandra Zaïnal
Concept & Development : Baudouin d'Aumeries
Co-Development & Prog : Marc-Olivier Méhu
Technical & hardware support : Manuel Goepfert

Contact : metmap@orbifly.com




SOURCES & CREDITS :

   NOAA